createdAt,value
2023-01-20T00:00:22.883Z,97566.63
2023-01-20T00:02:52.311Z,97564.84
2023-01-20T00:05:21.310Z,97564.59
2023-01-20T00:07:51.693Z,97562.69
2023-01-20T00:10:23.443Z,97567.72
2023-01-20T00:12:53.831Z,97569.31
2023-01-20T00:15:23.389Z,97564.88
2023-01-20T00:17:52.263Z,97565.94
2023-01-20T00:20:22.130Z,97574.34
2023-01-20T00:22:53.086Z,97575.56
2023-01-20T00:25:23.203Z,97573.78
2023-01-20T00:27:53.968Z,97573.91
2023-01-20T00:30:23.566Z,97576.63
2023-01-20T00:32:53.495Z,97571.06
2023-01-20T00:35:22.401Z,97574.34
2023-01-20T00:37:53.523Z,97576.75
2023-01-20T00:40:24.342Z,97580.97
2023-01-20T00:42:53.846Z,97580.16
2023-01-20T00:45:24.535Z,97583.53
2023-01-20T00:47:54.031Z,97584.34
2023-01-20T00:50:23.560Z,97585.28
2023-01-20T00:52:52.987Z,97585.44
2023-01-20T00:55:24.343Z,97594.34
2023-01-20T00:57:53.144Z,97593.66
2023-01-20T01:00:24.418Z,97601.22
2023-01-20T01:02:55.029Z,97601.50
2023-01-20T01:05:25.358Z,97602.44
2023-01-20T01:07:55.333Z,97607.13
2023-01-20T01:10:26.783Z,97603.91
2023-01-20T01:12:56.212Z,97599.28
2023-01-20T01:15:25.227Z,97609.56
2023-01-20T01:17:55.531Z,97618.19
2023-01-20T01:20:25.316Z,97622.97
2023-01-20T01:22:55.360Z,97634.44
2023-01-20T01:25:25.963Z,97635.50
2023-01-20T01:27:54.858Z,97637.38
2023-01-20T01:30:25.186Z,97645.47
2023-01-20T01:32:55.216Z,97640.31
2023-01-20T01:35:24.696Z,97643.31
2023-01-20T01:37:55.264Z,97645.88
2023-01-20T01:40:26.195Z,97651.38
2023-01-20T01:42:55.592Z,97649.19
2023-01-20T01:45:30.552Z,97650.16
2023-01-20T01:48:11.092Z,97659.97
2023-01-20T01:50:46.639Z,97657.28
2023-01-20T01:53:17.396Z,97650.06
2023-01-20T01:55:56.053Z,97659.09
2023-01-20T01:58:34.029Z,97660.19
2023-01-20T02:01:03.483Z,97653.78
2023-01-20T02:03:43.457Z,97664.19
2023-01-20T02:06:14.875Z,97668.38
2023-01-20T02:08:45.215Z,97667.31
2023-01-20T02:11:16.520Z,97659.88
2023-01-20T02:13:47.091Z,97667.56
2023-01-20T02:16:25.377Z,97665.00
2023-01-20T02:19:15.308Z,97672.25
2023-01-20T02:22:16.252Z,97676.00
2023-01-20T02:25:25.334Z,97674.31
2023-01-20T02:28:44.547Z,97679.94
2023-01-20T02:31:58.763Z,97684.00
2023-01-20T02:34:34.089Z,97684.16
2023-01-20T02:37:15.186Z,97693.44
2023-01-20T02:39:58.631Z,97690.31
2023-01-20T02:42:40.696Z,97695.69
2023-01-20T02:45:20.952Z,97692.31
2023-01-20T02:47:59.101Z,97695.03
2023-01-20T02:50:41.355Z,97689.91
2023-01-20T02:53:16.528Z,97694.13
2023-01-20T02:55:50.561Z,97697.63
2023-01-20T02:58:28.645Z,97696.44
2023-01-20T03:01:03.640Z,97701.84
2023-01-20T03:03:39.742Z,97705.47
2023-01-20T03:06:17.874Z,97701.75
2023-01-20T03:08:53.448Z,97712.13
2023-01-20T03:11:22.913Z,97716.31
2023-01-20T03:13:59.370Z,97715.50
2023-01-20T03:16:31.191Z,97712.38
2023-01-20T03:19:01.499Z,97722.28
2023-01-20T03:21:34.717Z,97727.44
2023-01-20T03:24:05.994Z,97724.72
2023-01-20T03:26:35.334Z,97729.06
2023-01-20T03:29:09.961Z,97731.06
2023-01-20T03:31:44.288Z,97747.34
2023-01-20T03:34:19.820Z,97742.22
2023-01-20T03:36:53.944Z,97747.72
2023-01-20T03:39:24.594Z,97749.69
2023-01-20T03:42:09.335Z,97753.19
2023-01-20T03:45:01.488Z,97744.81
2023-01-20T03:47:52.985Z,97757.88
2023-01-20T03:50:38.256Z,97758.31
2023-01-20T03:53:27.393Z,97759.03
2023-01-20T03:56:05.647Z,97757.53
2023-01-20T03:58:39.560Z,97759.03
2023-01-20T04:01:18.419Z,97761.59
2023-01-20T04:03:52.735Z,97770.19
2023-01-20T04:06:27.318Z,97769.28
2023-01-20T04:09:04.028Z,97773.59
2023-01-20T04:11:33.973Z,97772.44
2023-01-20T04:14:03.423Z,97777.22
2023-01-20T04:16:33.384Z,97778.38
2023-01-20T04:19:04.098Z,97774.66
2023-01-20T04:21:37.756Z,97775.91
2023-01-20T04:24:16.804Z,97777.53
2023-01-20T04:26:46.295Z,97771.50
2023-01-20T04:29:15.678Z,97776.47
2023-01-20T04:31:45.317Z,97783.50
2023-01-20T04:34:16.424Z,97780.78
2023-01-20T04:36:47.173Z,97779.06
2023-01-20T04:39:19.205Z,97779.97
2023-01-20T04:41:49.360Z,97787.31
2023-01-20T04:44:18.506Z,97787.06
2023-01-20T04:46:48.210Z,97789.78
2023-01-20T04:49:17.202Z,97788.97
2023-01-20T04:51:47.047Z,97796.28
2023-01-20T04:54:18.807Z,97792.78
2023-01-20T04:56:51.758Z,97798.63
2023-01-20T04:59:21.600Z,97794.19
2023-01-20T05:01:52.140Z,97803.50
2023-01-20T05:04:21.529Z,97811.19
2023-01-20T05:06:51.588Z,97806.06
2023-01-20T05:09:22.887Z,97810.25
2023-01-20T05:11:52.371Z,97812.03
2023-01-20T05:14:22.867Z,97806.06
2023-01-20T05:16:52.767Z,97810.38
2023-01-20T05:19:22.198Z,97813.44
2023-01-20T05:21:52.231Z,97810.03
2023-01-20T05:24:22.238Z,97817.25
2023-01-20T05:26:52.603Z,97816.34
2023-01-20T05:29:22.115Z,97814.69
2023-01-20T05:31:51.589Z,97814.00
2023-01-20T05:34:22.539Z,97818.44
2023-01-20T05:36:55.099Z,97822.28
2023-01-20T05:39:26.070Z,97821.38
2023-01-20T05:41:56.254Z,97834.19
2023-01-20T05:44:26.222Z,97828.22
2023-01-20T05:46:55.742Z,97829.97
2023-01-20T05:49:24.691Z,97837.78
2023-01-20T05:51:53.742Z,97845.69
2023-01-20T05:54:24.714Z,97842.22
2023-01-20T05:56:55.394Z,97843.25
2023-01-20T05:59:25.342Z,97849.31
2023-01-20T06:01:55.363Z,97853.41
2023-01-20T06:04:26.601Z,97861.66
2023-01-20T06:06:56.450Z,97865.06
2023-01-20T06:09:27.729Z,97865.63
2023-01-20T06:11:57.265Z,97875.28
2023-01-20T06:14:27.355Z,97877.13
2023-01-20T06:16:57.567Z,97879.00
2023-01-20T06:19:27.115Z,97877.94
2023-01-20T06:21:57.822Z,97880.47
2023-01-20T06:24:29.722Z,97886.78
2023-01-20T06:26:59.243Z,97889.19
2023-01-20T06:29:28.304Z,97901.06
2023-01-20T06:31:59.126Z,97901.97
2023-01-20T06:34:29.930Z,97904.22
2023-01-20T06:36:59.962Z,97902.25
2023-01-20T06:39:31.799Z,97903.06
2023-01-20T06:42:02.356Z,97900.59
2023-01-20T06:44:31.800Z,97897.22
2023-01-20T06:47:02.463Z,97902.25
2023-01-20T06:49:34.126Z,97905.38
2023-01-20T06:52:03.187Z,97905.44
2023-01-20T06:54:34.547Z,97910.56
2023-01-20T06:57:04.568Z,97915.69
2023-01-20T06:59:34.131Z,97921.03
2023-01-20T07:02:04.325Z,97925.13
2023-01-20T07:04:34.475Z,97931.53
2023-01-20T07:07:05.016Z,97935.72
2023-01-20T07:09:35.299Z,97938.00
2023-01-20T07:12:06.057Z,97937.41
2023-01-20T07:14:36.766Z,97940.69
2023-01-20T07:17:07.301Z,97946.75
2023-01-20T07:19:37.400Z,97941.63
2023-01-20T07:22:07.895Z,97946.88
2023-01-20T07:24:39.459Z,97946.63
2023-01-20T07:27:08.904Z,97952.69
2023-01-20T07:29:39.131Z,97955.69
2023-01-20T07:32:08.232Z,97958.94
2023-01-20T07:34:38.773Z,97959.16
2023-01-20T07:37:08.338Z,97970.31
2023-01-20T07:39:39.854Z,97969.41
2023-01-20T07:42:09.581Z,97969.19
2023-01-20T07:44:39.751Z,97968.97
2023-01-20T07:47:09.653Z,97973.06
2023-01-20T07:49:40.256Z,97971.19
2023-01-20T07:52:10.527Z,97974.44
2023-01-20T07:54:40.723Z,97979.38
2023-01-20T07:57:11.637Z,97983.69
2023-01-20T07:59:41.545Z,97983.47
2023-01-20T08:02:12.360Z,97986.72
2023-01-20T08:04:42.279Z,97990.69
2023-01-20T08:07:13.355Z,97988.81
2023-01-20T08:09:44.131Z,97993.03
2023-01-20T08:12:13.965Z,97988.72
2023-01-20T08:14:42.968Z,97993.03
2023-01-20T08:17:11.987Z,97994.44
2023-01-20T08:19:40.936Z,97999.66
2023-01-20T08:22:09.488Z,98001.44
2023-01-20T08:24:39.086Z,98006.56
2023-01-20T08:27:10.637Z,98015.63
2023-01-20T08:29:40.419Z,98007.94
2023-01-20T08:32:11.170Z,98008.91
2023-01-20T08:34:41.540Z,98016.69
2023-01-20T08:37:11.544Z,98021.94
2023-01-20T08:39:40.395Z,98021.72
2023-01-20T08:42:12.338Z,98025.41
2023-01-20T08:44:41.765Z,98030.00
2023-01-20T08:47:11.343Z,98029.78
2023-01-20T08:49:40.747Z,98029.63
2023-01-20T08:52:12.138Z,98030.47
2023-01-20T08:54:42.375Z,98038.06
2023-01-20T08:57:13.577Z,98040.72
2023-01-20T08:59:43.086Z,98040.63
2023-01-20T09:02:12.644Z,98037.00
2023-01-20T09:04:43.000Z,98046.22
2023-01-20T09:07:13.911Z,98049.38
2023-01-20T09:09:44.306Z,98056.03
2023-01-20T09:12:15.327Z,98056.72
2023-01-20T09:14:45.240Z,98060.13
2023-01-20T09:17:15.342Z,98051.63
2023-01-20T09:19:45.689Z,98051.50
2023-01-20T09:22:16.618Z,98055.38
2023-01-20T09:24:47.047Z,98061.19
2023-01-20T09:27:18.625Z,98064.25
2023-01-20T09:29:48.364Z,98066.59
2023-01-20T09:32:18.894Z,98064.63
2023-01-20T09:34:49.025Z,98062.66
2023-01-20T09:37:37.167Z,98067.47
2023-01-20T09:40:23.835Z,98073.88
2023-01-20T09:43:30.887Z,98068.75
2023-01-20T09:46:11.906Z,98071.56
2023-01-20T09:49:12.234Z,98073.59
2023-01-20T09:52:14.926Z,98074.88
2023-01-20T09:54:52.203Z,98082.09
2023-01-20T09:57:29.343Z,98067.91
2023-01-20T10:00:08.018Z,98078.28
2023-01-20T10:02:38.833Z,98068.41
2023-01-20T10:05:16.362Z,98063.50
2023-01-20T10:07:56.632Z,98060.34
2023-01-20T10:10:33.774Z,98061.41
2023-01-20T10:13:14.872Z,98065.84
2023-01-20T10:15:53.123Z,98058.38
2023-01-20T10:18:29.068Z,98060.13
2023-01-20T10:21:07.947Z,98056.16
2023-01-20T10:23:44.757Z,98061.38
2023-01-20T10:26:20.285Z,98061.47
2023-01-20T10:28:59.839Z,98057.59
2023-01-20T10:31:35.777Z,98057.13
2023-01-20T10:34:14.273Z,98052.44
2023-01-20T10:36:51.371Z,98051.25
2023-01-20T10:39:34.617Z,98051.72
2023-01-20T10:42:11.718Z,98053.91
2023-01-20T10:44:41.221Z,98050.97
2023-01-20T10:47:43.210Z,98059.16
2023-01-20T10:50:45.137Z,98055.13
2023-01-20T10:53:37.512Z,98049.88
2023-01-20T10:56:27.003Z,98063.06
2023-01-20T10:58:58.422Z,98057.66
2023-01-20T11:01:29.032Z,98064.09
2023-01-20T11:03:59.887Z,98061.38
2023-01-20T11:06:29.182Z,98058.31
2023-01-20T11:09:09.524Z,98056.44
2023-01-20T11:11:40.403Z,98056.75
2023-01-20T11:14:11.180Z,98054.63
2023-01-20T11:16:45.330Z,98062.66
2023-01-20T11:19:16.055Z,98059.94
2023-01-20T11:21:46.719Z,98061.78
2023-01-20T11:24:43.297Z,98060.44
2023-01-20T11:27:20.523Z,98058.97
2023-01-20T11:29:56.928Z,98068.06
2023-01-20T11:32:36.436Z,98079.84
2023-01-20T11:35:25.621Z,98077.13
2023-01-20T11:37:56.118Z,98069.75
2023-01-20T11:40:28.751Z,98068.22
2023-01-20T11:42:59.234Z,98065.38
2023-01-20T11:45:35.205Z,98062.69
2023-01-20T11:48:18.492Z,98065.03
2023-01-20T11:50:58.205Z,98068.16
2023-01-20T11:53:31.736Z,98066.25
2023-01-20T11:56:03.690Z,98056.28
2023-01-20T11:58:50.398Z,98061.28
2023-01-20T12:01:27.443Z,98054.50
2023-01-20T12:05:10.176Z,98051.13
2023-01-20T12:07:48.082Z,98048.69
2023-01-20T12:10:25.543Z,98044.09
2023-01-20T12:13:02.452Z,98035.44
2023-01-20T12:15:36.431Z,98040.31
2023-01-20T12:18:17.231Z,98047.09
2023-01-20T12:20:55.715Z,98046.84
2023-01-20T12:23:46.204Z,98045.22
2023-01-20T12:26:18.946Z,98048.44
2023-01-20T12:29:06.485Z,98061.34
2023-01-20T12:31:38.040Z,98057.41
2023-01-20T12:34:15.182Z,98057.06
2023-01-20T12:37:14.186Z,98060.22
2023-01-20T12:40:21.437Z,98061.84
2023-01-20T12:43:22.729Z,98058.69
2023-01-20T12:46:15.247Z,98060.53
2023-01-20T12:49:02.239Z,98057.75
2023-01-20T12:51:52.340Z,98058.31
2023-01-20T12:54:59.163Z,98058.53
2023-01-20T12:58:20.030Z,98061.56
2023-01-20T13:01:28.889Z,98067.78
2023-01-20T13:04:46.355Z,98062.88
2023-01-20T13:07:57.483Z,98060.94
2023-01-20T13:10:52.557Z,98053.78
2023-01-20T13:13:56.359Z,98058.41
2023-01-20T13:16:37.424Z,98053.38
2023-01-20T13:19:16.523Z,98055.28
2023-01-20T13:21:56.665Z,98055.25
2023-01-20T13:24:38.214Z,98049.94
2023-01-20T13:27:08.497Z,98052.16
2023-01-20T13:29:56.788Z,98053.78
2023-01-20T13:32:38.508Z,98052.16
2023-01-20T13:35:50.547Z,98061.88
2023-01-20T13:38:24.295Z,98056.19
2023-01-20T13:41:06.636Z,98060.81
2023-01-20T13:44:00.775Z,98050.66
2023-01-20T13:46:51.623Z,98057.28
2023-01-20T13:49:28.653Z,98051.06
2023-01-20T13:51:57.959Z,98049.56
2023-01-20T13:54:46.168Z,98050.75
2023-01-20T13:57:49.159Z,98051.72
2023-01-20T14:00:21.075Z,98053.34
2023-01-20T14:02:53.200Z,98059.75
2023-01-20T14:05:32.617Z,98053.28
2023-01-20T14:08:02.279Z,98056.94
2023-01-20T14:10:32.168Z,98059.88
2023-01-20T14:13:03.017Z,98060.31
2023-01-20T14:15:39.248Z,98061.00
2023-01-20T14:18:19.627Z,98063.31
2023-01-20T14:21:05.678Z,98064.50
2023-01-20T14:23:59.200Z,98068.16
2023-01-20T14:26:30.855Z,98067.06
2023-01-20T14:29:03.759Z,98066.25
2023-01-20T14:31:38.139Z,98065.22
2023-01-20T14:34:29.776Z,98069.66
2023-01-20T14:37:03.643Z,98055.16
2023-01-20T14:39:33.710Z,98064.50
2023-01-20T14:42:04.537Z,98058.41
2023-01-20T14:44:34.446Z,98063.56
2023-01-20T14:47:06.065Z,98064.38
2023-01-20T14:49:39.846Z,98069.66
2023-01-20T14:52:15.188Z,98065.47
2023-01-20T14:54:45.955Z,98061.50
2023-01-20T14:57:29.392Z,98065.94
2023-01-20T15:00:16.948Z,98069.22
2023-01-20T15:03:05.379Z,98069.34
2023-01-20T15:05:54.306Z,98076.00
2023-01-20T15:08:26.735Z,98072.50
2023-01-20T15:11:46.576Z,98074.94
2023-01-20T15:14:16.604Z,98076.69
2023-01-20T15:17:10.711Z,98073.19
2023-01-20T15:19:46.770Z,98080.22
2023-01-20T15:22:25.096Z,98072.50
2023-01-20T15:24:55.572Z,98074.13
2023-01-20T15:27:34.210Z,98080.09
2023-01-20T15:30:21.607Z,98075.75
2023-01-20T15:32:53.804Z,98076.56
2023-01-20T15:35:27.626Z,98079.03
2023-01-20T15:37:58.486Z,98083.34
2023-01-20T15:40:29.076Z,98073.88
2023-01-20T15:42:58.582Z,98076.31
2023-01-20T15:45:27.528Z,98090.97
2023-01-20T15:47:58.539Z,98083.91
2023-01-20T15:50:32.024Z,98090.81
2023-01-20T15:53:04.085Z,98087.41
2023-01-20T15:55:32.561Z,98087.41
2023-01-20T15:58:02.622Z,98084.84
2023-01-20T16:00:33.992Z,98087.41
2023-01-20T16:03:10.160Z,98090.69
2023-01-20T16:05:39.229Z,98083.78
2023-01-20T16:08:18.326Z,98089.88
2023-01-20T16:10:47.751Z,98089.88
2023-01-20T16:13:18.263Z,98089.06
2023-01-20T16:15:47.162Z,98089.06
2023-01-20T16:18:19.978Z,98083.09
2023-01-20T16:20:51.408Z,98092.34
2023-01-20T16:23:22.751Z,98101.00
2023-01-20T16:25:52.226Z,98097.50
2023-01-20T16:28:24.251Z,98095.59
2023-01-20T16:30:54.783Z,98103.31
2023-01-20T16:33:26.965Z,98097.50
2023-01-20T16:35:57.683Z,98102.50
2023-01-20T16:38:27.606Z,98098.16
2023-01-20T16:41:05.377Z,98104.00
2023-01-20T16:43:34.808Z,98100.63
2023-01-20T16:46:04.999Z,98106.56
2023-01-20T16:48:33.400Z,98102.13
2023-01-20T16:51:05.536Z,98107.28
2023-01-20T16:53:37.558Z,98106.44
2023-01-20T16:56:10.800Z,98107.28
2023-01-20T16:58:39.741Z,98106.44
2023-01-20T17:01:12.709Z,98105.53
2023-01-20T17:03:42.336Z,98110.66
2023-01-20T17:06:17.339Z,98108.91
2023-01-20T17:08:49.921Z,98110.53
2023-01-20T17:11:19.590Z,98115.81
2023-01-20T17:13:49.834Z,98125.97
2023-01-20T17:16:20.791Z,98118.25
2023-01-20T17:18:52.334Z,98119.88
2023-01-20T17:21:23.478Z,98123.28
2023-01-20T17:23:55.527Z,98121.38
2023-01-20T17:26:26.600Z,98120.44
2023-01-20T17:28:58.394Z,98119.53
2023-01-20T17:31:28.841Z,98127.34
2023-01-20T17:33:58.415Z,98124.66
2023-01-20T17:36:30.102Z,98126.28
2023-01-20T17:39:00.268Z,98133.22
2023-01-20T17:41:30.253Z,98128.06
2023-01-20T17:43:59.758Z,98126.28
2023-01-20T17:46:30.330Z,98131.44
2023-01-20T17:49:00.881Z,98134.81
2023-01-20T17:51:32.678Z,98133.75
2023-01-20T17:54:04.329Z,98132.97
2023-01-20T17:56:33.505Z,98137.97
2023-01-20T17:59:03.260Z,98140.69
2023-01-20T18:01:34.395Z,98142.28
2023-01-20T18:04:05.753Z,98142.28
2023-01-20T18:06:36.085Z,98139.72
2023-01-20T18:09:08.408Z,98137.97
2023-01-20T18:11:39.792Z,98139.72
2023-01-20T18:14:08.645Z,98142.19
2023-01-20T18:16:41.016Z,98149.75
2023-01-20T18:19:13.936Z,98144.75
2023-01-20T18:21:45.516Z,98142.19
2023-01-20T18:24:17.119Z,98150.72
2023-01-20T18:26:46.733Z,98146.50
2023-01-20T18:29:17.751Z,98149.09
2023-01-20T18:31:47.848Z,98155.88
2023-01-20T18:34:17.272Z,98152.59
2023-01-20T18:36:49.291Z,98145.69
2023-01-20T18:39:21.653Z,98149.09
2023-01-20T18:41:52.736Z,98149.09
2023-01-20T18:44:23.378Z,98154.25
2023-01-20T18:46:53.399Z,98155.06
2023-01-20T18:49:23.766Z,98159.41
2023-01-20T18:51:54.525Z,98148.16
2023-01-20T18:54:25.891Z,98153.31
2023-01-20T18:56:54.391Z,98157.50
2023-01-20T18:59:24.175Z,98168.75
2023-01-20T19:01:55.487Z,98166.28
2023-01-20T19:04:25.530Z,98169.69
2023-01-20T19:06:56.026Z,98168.63
2023-01-20T19:09:28.415Z,98167.78
2023-01-20T19:11:57.626Z,98178.34
2023-01-20T19:14:27.787Z,98177.53
2023-01-20T19:16:56.786Z,98173.47
2023-01-20T19:19:26.593Z,98176.03
2023-01-20T19:21:55.655Z,98181.06
2023-01-20T19:24:29.460Z,98187.84
2023-01-20T19:27:01.027Z,98188.56
2023-01-20T19:29:30.960Z,98192.19
2023-01-20T19:32:00.152Z,98191.25
2023-01-20T19:34:30.589Z,98184.22
2023-01-20T19:37:01.214Z,98196.28
2023-01-20T19:39:32.380Z,98193.81
2023-01-20T19:42:02.189Z,98196.38
2023-01-20T19:44:31.991Z,98195.72
2023-01-20T19:47:04.306Z,98196.53
2023-01-20T19:49:34.083Z,98202.50
2023-01-20T19:52:03.509Z,98206.84
2023-01-20T19:54:33.664Z,98196.53
2023-01-20T19:57:03.549Z,98205.75
2023-01-20T19:59:32.713Z,98202.38
2023-01-20T20:02:01.703Z,98202.50
2023-01-20T20:04:31.267Z,98210.09
2023-01-20T20:07:01.248Z,98209.97
2023-01-20T20:09:30.958Z,98210.09
2023-01-20T20:12:06.697Z,98214.41
2023-01-20T20:14:36.534Z,98216.75
2023-01-20T20:17:05.985Z,98217.72
2023-01-20T20:19:35.703Z,98222.16
2023-01-20T20:22:05.977Z,98223.22
2023-01-20T20:24:36.128Z,98222.41
2023-01-20T20:27:07.672Z,98229.19
2023-01-20T20:29:36.524Z,98230.13
2023-01-20T20:32:06.671Z,98231.09
2023-01-20T20:34:36.319Z,98239.34
2023-01-20T20:37:05.478Z,98235.03
2023-01-20T20:39:36.898Z,98236.09
2023-01-20T20:42:08.602Z,98239.75
2023-01-20T20:44:38.192Z,98239.03
2023-01-20T20:47:07.205Z,98234.97
2023-01-20T20:49:36.652Z,98244.19
2023-01-20T20:52:07.337Z,98248.31
2023-01-20T20:54:36.396Z,98250.16
2023-01-20T20:57:08.213Z,98244.19
2023-01-20T20:59:50.293Z,98247.72
2023-01-20T21:02:27.003Z,98252.63
2023-01-20T21:04:56.645Z,98254.81
2023-01-20T21:07:26.023Z,98256.44
2023-01-20T21:09:55.803Z,98251.44
2023-01-20T21:12:26.770Z,98262.78
2023-01-20T21:14:56.724Z,98267.16
2023-01-20T21:17:26.688Z,98278.38
2023-01-20T21:19:56.723Z,98274.88
2023-01-20T21:22:26.941Z,98269.72
2023-01-20T21:24:57.497Z,98272.97
2023-01-20T21:27:28.875Z,98273.09
2023-01-20T21:29:59.420Z,98284.94
2023-01-20T21:32:28.868Z,98284.78
2023-01-20T21:34:59.020Z,98281.84
2023-01-20T21:37:27.838Z,98280.91
2023-01-20T21:39:56.653Z,98284.19
2023-01-20T21:42:27.671Z,98281.50
2023-01-20T21:44:57.219Z,98294.13
2023-01-20T21:47:27.193Z,98283.94
2023-01-20T21:50:15.328Z,98288.00
2023-01-20T21:52:45.543Z,98279.47
2023-01-20T21:55:19.055Z,98287.22
2023-01-20T21:57:51.539Z,98282.84
2023-01-20T22:00:22.689Z,98286.25
2023-01-20T22:02:51.894Z,98288.56
2023-01-20T22:05:22.522Z,98290.22
2023-01-20T22:07:53.627Z,98291.97
2023-01-20T22:10:24.228Z,98298.88
2023-01-20T22:12:56.637Z,98302.41
2023-01-20T22:15:27.213Z,98302.41
2023-01-20T22:17:57.813Z,98309.19
2023-01-20T22:20:29.475Z,98305.69
2023-01-20T22:22:59.387Z,98308.97
2023-01-20T22:25:28.812Z,98310.47
2023-01-20T22:27:59.925Z,98314.13
2023-01-20T22:30:29.972Z,98312.34
2023-01-20T22:33:00.123Z,98327.78
2023-01-20T22:35:31.401Z,98324.53
2023-01-20T22:38:01.794Z,98324.41
2023-01-20T22:40:34.192Z,98333.09
2023-01-20T22:43:04.991Z,98332.25
2023-01-20T22:45:34.713Z,98340.09
2023-01-20T22:48:04.244Z,98346.91
2023-01-20T22:50:36.440Z,98342.00
2023-01-20T22:53:06.095Z,98344.56
2023-01-20T22:55:36.172Z,98354.06
2023-01-20T22:58:08.048Z,98347.16
2023-01-20T23:00:38.197Z,98343.66
2023-01-20T23:03:06.955Z,98352.31
2023-01-20T23:05:36.036Z,98359.94
2023-01-20T23:08:05.249Z,98357.47
2023-01-20T23:10:47.747Z,98367.75
2023-01-20T23:13:19.297Z,98362.50
2023-01-20T23:15:48.857Z,98371.03
2023-01-20T23:18:17.886Z,98375.25
2023-01-20T23:20:50.096Z,98376.19
2023-01-20T23:23:20.178Z,98377.00
2023-01-20T23:25:49.474Z,98385.69
2023-01-20T23:28:20.489Z,98379.97
2023-01-20T23:30:50.006Z,98380.19
2023-01-20T23:33:19.694Z,98381.16
2023-01-20T23:35:49.827Z,98383.81
2023-01-20T23:38:19.369Z,98384.66
2023-01-20T23:40:50.403Z,98394.03
2023-01-20T23:43:20.854Z,98399.19
2023-01-20T23:45:49.993Z,98401.03
2023-01-20T23:48:19.740Z,98402.78
2023-01-20T23:50:49.685Z,98405.38
2023-01-20T23:53:19.121Z,98398.72
2023-01-20T23:55:48.700Z,98405.63
2023-01-20T23:58:19.877Z,98409.16
